sensor_id;sensor_type;location;lat;lon;timestamp;temperature;humidity
68248;SHT30;55064;49.636;12.164;2024-01-27T00:00:23;2.97;90.93
68248;SHT30;55064;49.636;12.164;2024-01-27T00:02:49;2.97;91.02
68248;SHT30;55064;49.636;12.164;2024-01-27T00:05:14;2.94;91.11
68248;SHT30;55064;49.636;12.164;2024-01-27T00:07:39;2.94;91.08
68248;SHT30;55064;49.636;12.164;2024-01-27T00:10:06;2.97;91.13
68248;SHT30;55064;49.636;12.164;2024-01-27T00:12:31;2.93;91.13
68248;SHT30;55064;49.636;12.164;2024-01-27T00:14:57;2.96;91.12
68248;SHT30;55064;49.636;12.164;2024-01-27T00:17:22;2.91;91.09
68248;SHT30;55064;49.636;12.164;2024-01-27T00:19:53;2.90;91.19
68248;SHT30;55064;49.636;12.164;2024-01-27T00:22:18;2.87;91.17
68248;SHT30;55064;49.636;12.164;2024-01-27T00:24:45;2.86;91.14
68248;SHT30;55064;49.636;12.164;2024-01-27T00:27:11;2.81;91.34
68248;SHT30;55064;49.636;12.164;2024-01-27T00:29:36;2.76;91.48
68248;SHT30;55064;49.636;12.164;2024-01-27T00:32:02;2.72;91.58
68248;SHT30;55064;49.636;12.164;2024-01-27T00:34:27;2.69;91.72
68248;SHT30;55064;49.636;12.164;2024-01-27T00:36:52;2.72;91.67
68248;SHT30;55064;49.636;12.164;2024-01-27T00:39:18;2.70;91.85
68248;SHT30;55064;49.636;12.164;2024-01-27T00:41:44;2.69;91.78
68248;SHT30;55064;49.636;12.164;2024-01-27T00:44:10;2.66;91.87
68248;SHT30;55064;49.636;12.164;2024-01-27T00:46:36;2.69;91.52
68248;SHT30;55064;49.636;12.164;2024-01-27T00:49:02;2.66;91.63
68248;SHT30;55064;49.636;12.164;2024-01-27T00:51:27;2.63;91.74
68248;SHT30;55064;49.636;12.164;2024-01-27T00:53:53;2.62;91.81
68248;SHT30;55064;49.636;12.164;2024-01-27T00:56:18;2.60;91.85
68248;SHT30;55064;49.636;12.164;2024-01-27T00:58:43;2.57;91.91
68248;SHT30;55064;49.636;12.164;2024-01-27T01:01:09;2.55;91.79
68248;SHT30;55064;49.636;12.164;2024-01-27T01:03:34;2.55;91.86
68248;SHT30;55064;49.636;12.164;2024-01-27T01:05:59;2.52;92.05
68248;SHT30;55064;49.636;12.164;2024-01-27T01:08:28;2.49;92.13
68248;SHT30;55064;49.636;12.164;2024-01-27T01:10:54;2.50;92.12
68248;SHT30;55064;49.636;12.164;2024-01-27T01:13:19;2.53;92.05
68248;SHT30;55064;49.636;12.164;2024-01-27T01:15:44;2.55;91.95
68248;SHT30;55064;49.636;12.164;2024-01-27T01:18:10;2.50;92.02
68248;SHT30;55064;49.636;12.164;2024-01-27T01:20:35;2.46;92.06
68248;SHT30;55064;49.636;12.164;2024-01-27T01:23:00;2.38;92.21
68248;SHT30;55064;49.636;12.164;2024-01-27T01:25:26;2.39;92.34
68248;SHT30;55064;49.636;12.164;2024-01-27T01:27:51;2.34;92.38
68248;SHT30;55064;49.636;12.164;2024-01-27T01:30:17;2.32;92.46
68248;SHT30;55064;49.636;12.164;2024-01-27T01:32:43;2.32;92.40
68248;SHT30;55064;49.636;12.164;2024-01-27T01:35:10;2.29;92.49
68248;SHT30;55064;49.636;12.164;2024-01-27T01:37:35;2.24;92.61
68248;SHT30;55064;49.636;12.164;2024-01-27T01:40:01;2.21;92.66
68248;SHT30;55064;49.636;12.164;2024-01-27T01:42:27;2.20;92.77
68248;SHT30;55064;49.636;12.164;2024-01-27T01:44:54;2.17;92.74
68248;SHT30;55064;49.636;12.164;2024-01-27T01:47:19;2.17;92.54
68248;SHT30;55064;49.636;12.164;2024-01-27T01:49:45;2.15;92.55
68248;SHT30;55064;49.636;12.164;2024-01-27T01:52:11;2.13;92.68
68248;SHT30;55064;49.636;12.164;2024-01-27T01:54:37;2.17;92.48
68248;SHT30;55064;49.636;12.164;2024-01-27T01:57:03;2.14;92.52
68248;SHT30;55064;49.636;12.164;2024-01-27T01:59:28;2.13;92.49
68248;SHT30;55064;49.636;12.164;2024-01-27T02:01:54;2.08;92.55
68248;SHT30;55064;49.636;12.164;2024-01-27T02:04:19;2.07;92.57
68248;SHT30;55064;49.636;12.164;2024-01-27T02:06:45;2.07;92.49
68248;SHT30;55064;49.636;12.164;2024-01-27T02:09:10;1.97;92.59
68248;SHT30;55064;49.636;12.164;2024-01-27T02:11:36;1.91;92.69
68248;SHT30;55064;49.636;12.164;2024-01-27T02:14:02;1.90;92.78
68248;SHT30;55064;49.636;12.164;2024-01-27T02:16:27;1.91;92.67
68248;SHT30;55064;49.636;12.164;2024-01-27T02:18:52;1.87;92.84
68248;SHT30;55064;49.636;12.164;2024-01-27T02:21:18;1.83;92.87
68248;SHT30;55064;49.636;12.164;2024-01-27T02:23:43;1.80;93.00
68248;SHT30;55064;49.636;12.164;2024-01-27T02:26:08;1.81;92.79
68248;SHT30;55064;49.636;12.164;2024-01-27T02:28:34;1.77;92.93
68248;SHT30;55064;49.636;12.164;2024-01-27T02:31:00;1.80;92.72
68248;SHT30;55064;49.636;12.164;2024-01-27T02:33:26;1.79;92.74
68248;SHT30;55064;49.636;12.164;2024-01-27T02:35:51;1.71;92.78
68248;SHT30;55064;49.636;12.164;2024-01-27T02:38:16;1.74;92.81
68248;SHT30;55064;49.636;12.164;2024-01-27T02:40:42;1.71;92.87
68248;SHT30;55064;49.636;12.164;2024-01-27T02:43:07;1.67;92.86
68248;SHT30;55064;49.636;12.164;2024-01-27T02:45:32;1.69;92.72
68248;SHT30;55064;49.636;12.164;2024-01-27T02:47:58;1.67;92.76
68248;SHT30;55064;49.636;12.164;2024-01-27T02:50:23;1.64;92.83
68248;SHT30;55064;49.636;12.164;2024-01-27T02:52:48;1.58;92.77
68248;SHT30;55064;49.636;12.164;2024-01-27T02:55:14;1.63;92.89
68248;SHT30;55064;49.636;12.164;2024-01-27T02:57:40;1.59;92.81
68248;SHT30;55064;49.636;12.164;2024-01-27T03:00:06;1.59;92.81
68248;SHT30;55064;49.636;12.164;2024-01-27T03:02:32;1.58;92.87
68248;SHT30;55064;49.636;12.164;2024-01-27T03:04:57;1.55;92.92
68248;SHT30;55064;49.636;12.164;2024-01-27T03:07:23;1.52;93.02
68248;SHT30;55064;49.636;12.164;2024-01-27T03:09:48;1.53;93.09
68248;SHT30;55064;49.636;12.164;2024-01-27T03:12:14;1.52;93.12
68248;SHT30;55064;49.636;12.164;2024-01-27T03:14:41;1.53;93.03
68248;SHT30;55064;49.636;12.164;2024-01-27T03:17:06;1.53;93.00
68248;SHT30;55064;49.636;12.164;2024-01-27T03:19:32;1.49;93.05
68248;SHT30;55064;49.636;12.164;2024-01-27T03:21:57;1.48;93.19
68248;SHT30;55064;49.636;12.164;2024-01-27T03:24:23;1.43;93.29
68248;SHT30;55064;49.636;12.164;2024-01-27T03:26:48;1.45;93.34
68248;SHT30;55064;49.636;12.164;2024-01-27T03:29:14;1.38;93.31
68248;SHT30;55064;49.636;12.164;2024-01-27T03:31:39;1.34;93.44
68248;SHT30;55064;49.636;12.164;2024-01-27T03:34:05;1.28;93.52
68248;SHT30;55064;49.636;12.164;2024-01-27T03:36:30;1.28;93.66
68248;SHT30;55064;49.636;12.164;2024-01-27T03:38:58;1.21;93.76
68248;SHT30;55064;49.636;12.164;2024-01-27T03:41:23;1.28;93.72
68248;SHT30;55064;49.636;12.164;2024-01-27T03:43:49;1.25;93.69
68248;SHT30;55064;49.636;12.164;2024-01-27T03:46:14;1.22;93.77
68248;SHT30;55064;49.636;12.164;2024-01-27T03:48:40;1.24;93.70
68248;SHT30;55064;49.636;12.164;2024-01-27T03:51:05;1.18;93.81
68248;SHT30;55064;49.636;12.164;2024-01-27T03:53:30;1.17;93.95
68248;SHT30;55064;49.636;12.164;2024-01-27T03:55:56;1.14;94.01
68248;SHT30;55064;49.636;12.164;2024-01-27T03:58:27;1.09;94.10
68248;SHT30;55064;49.636;12.164;2024-01-27T04:00:53;1.05;94.21
68248;SHT30;55064;49.636;12.164;2024-01-27T04:03:18;1.05;94.15
68248;SHT30;55064;49.636;12.164;2024-01-27T04:05:44;1.01;94.16
68248;SHT30;55064;49.636;12.164;2024-01-27T04:08:09;1.01;94.17
68248;SHT30;55064;49.636;12.164;2024-01-27T04:10:36;0.96;94.23
68248;SHT30;55064;49.636;12.164;2024-01-27T04:13:02;0.94;94.24
68248;SHT30;55064;49.636;12.164;2024-01-27T04:15:27;0.86;94.31
68248;SHT30;55064;49.636;12.164;2024-01-27T04:17:52;0.84;94.40
68248;SHT30;55064;49.636;12.164;2024-01-27T04:20:19;0.80;94.53
68248;SHT30;55064;49.636;12.164;2024-01-27T04:22:45;0.83;94.60
68248;SHT30;55064;49.636;12.164;2024-01-27T04:25:10;0.81;94.62
68248;SHT30;55064;49.636;12.164;2024-01-27T04:27:39;0.76;94.67
68248;SHT30;55064;49.636;12.164;2024-01-27T04:30:06;0.77;94.70
68248;SHT30;55064;49.636;12.164;2024-01-27T04:32:32;0.72;94.75
68248;SHT30;55064;49.636;12.164;2024-01-27T04:34:57;0.75;94.72
68248;SHT30;55064;49.636;12.164;2024-01-27T04:37:23;0.72;94.64
68248;SHT30;55064;49.636;12.164;2024-01-27T04:39:48;0.70;94.70
68248;SHT30;55064;49.636;12.164;2024-01-27T04:42:13;0.70;94.69
68248;SHT30;55064;49.636;12.164;2024-01-27T04:44:42;0.66;94.79
68248;SHT30;55064;49.636;12.164;2024-01-27T04:47:08;0.63;94.85
68248;SHT30;55064;49.636;12.164;2024-01-27T04:49:33;0.62;94.81
68248;SHT30;55064;49.636;12.164;2024-01-27T04:51:58;0.59;94.99
68248;SHT30;55064;49.636;12.164;2024-01-27T04:54:24;0.52;94.89
68248;SHT30;55064;49.636;12.164;2024-01-27T04:56:50;0.53;94.97
68248;SHT30;55064;49.636;12.164;2024-01-27T04:59:15;0.55;94.94
68248;SHT30;55064;49.636;12.164;2024-01-27T05:01:46;0.59;95.08
68248;SHT30;55064;49.636;12.164;2024-01-27T05:04:12;0.56;95.10
68248;SHT30;55064;49.636;12.164;2024-01-27T05:06:38;0.42;95.18
68248;SHT30;55064;49.636;12.164;2024-01-27T05:09:05;0.37;95.57
68248;SHT30;55064;49.636;12.164;2024-01-27T05:11:33;0.19;95.77
68248;SHT30;55064;49.636;12.164;2024-01-27T05:13:59;0.17;96.01
68248;SHT30;55064;49.636;12.164;2024-01-27T05:16:25;0.19;96.17
68248;SHT30;55064;49.636;12.164;2024-01-27T05:18:51;0.24;96.17
68248;SHT30;55064;49.636;12.164;2024-01-27T05:21:16;0.22;96.02
68248;SHT30;55064;49.636;12.164;2024-01-27T05:23:41;0.22;96.11
68248;SHT30;55064;49.636;12.164;2024-01-27T05:26:07;0.21;96.07
68248;SHT30;55064;49.636;12.164;2024-01-27T05:28:32;0.15;96.21
68248;SHT30;55064;49.636;12.164;2024-01-27T05:30:58;0.12;96.11
68248;SHT30;55064;49.636;12.164;2024-01-27T05:33:23;-0.21;96.07
68248;SHT30;55064;49.636;12.164;2024-01-27T05:35:49;-0.41;96.78
68248;SHT30;55064;49.636;12.164;2024-01-27T05:38:15;-0.54;97.31
68248;SHT30;55064;49.636;12.164;2024-01-27T05:40:41;-0.55;97.79
68248;SHT30;55064;49.636;12.164;2024-01-27T05:43:07;-0.58;98.14
68248;SHT30;55064;49.636;12.164;2024-01-27T05:45:32;-0.64;98.27
68248;SHT30;55064;49.636;12.164;2024-01-27T05:47:57;-0.64;98.07
68248;SHT30;55064;49.636;12.164;2024-01-27T05:50:23;-0.75;98.44
68248;SHT30;55064;49.636;12.164;2024-01-27T05:52:48;-0.75;98.53
68248;SHT30;55064;49.636;12.164;2024-01-27T05:55:13;-0.78;98.62
68248;SHT30;55064;49.636;12.164;2024-01-27T05:57:39;-0.85;98.68
68248;SHT30;55064;49.636;12.164;2024-01-27T06:00:05;-0.92;98.92
68248;SHT30;55064;49.636;12.164;2024-01-27T06:02:30;-0.92;98.92
68248;SHT30;55064;49.636;12.164;2024-01-27T06:04:56;-0.96;99.13
68248;SHT30;55064;49.636;12.164;2024-01-27T06:07:21;-1.03;99.14
68248;SHT30;55064;49.636;12.164;2024-01-27T06:09:46;-1.03;99.24
68248;SHT30;55064;49.636;12.164;2024-01-27T06:12:12;-1.04;99.37
68248;SHT30;55064;49.636;12.164;2024-01-27T06:14:37;-1.04;99.24
68248;SHT30;55064;49.636;12.164;2024-01-27T06:17:04;-1.03;99.18
68248;SHT30;55064;49.636;12.164;2024-01-27T06:19:30;-0.97;99.15
68248;SHT30;55064;49.636;12.164;2024-01-27T06:21:55;-0.97;99.02
68248;SHT30;55064;49.636;12.164;2024-01-27T06:24:21;-1.00;98.97
68248;SHT30;55064;49.636;12.164;2024-01-27T06:26:46;-0.99;98.99
68248;SHT30;55064;49.636;12.164;2024-01-27T06:29:14;-0.96;99.04
68248;SHT30;55064;49.636;12.164;2024-01-27T06:31:39;-0.89;98.84
68248;SHT30;55064;49.636;12.164;2024-01-27T06:34:04;-0.92;98.60
68248;SHT30;55064;49.636;12.164;2024-01-27T06:36:30;-0.93;98.74
68248;SHT30;55064;49.636;12.164;2024-01-27T06:38:55;-0.97;98.57
68248;SHT30;55064;49.636;12.164;2024-01-27T06:41:21;-0.96;98.52
68248;SHT30;55064;49.636;12.164;2024-01-27T06:43:47;-0.97;98.77
68248;SHT30;55064;49.636;12.164;2024-01-27T06:46:12;-1.01;98.64
68248;SHT30;55064;49.636;12.164;2024-01-27T06:48:38;-1.01;98.97
68248;SHT30;55064;49.636;12.164;2024-01-27T06:51:04;-1.01;98.72
68248;SHT30;55064;49.636;12.164;2024-01-27T06:53:29;-1.07;98.74
68248;SHT30;55064;49.636;12.164;2024-01-27T06:55:55;-1.03;98.96
68248;SHT30;55064;49.636;12.164;2024-01-27T06:58:20;-0.93;98.91
68248;SHT30;55064;49.636;12.164;2024-01-27T07:00:46;-0.82;98.44
68248;SHT30;55064;49.636;12.164;2024-01-27T07:03:12;-0.62;98.84
68248;SHT30;55064;49.636;12.164;2024-01-27T07:05:37;-0.48;98.98
68248;SHT30;55064;49.636;12.164;2024-01-27T07:08:09;-0.27;98.70
68248;SHT30;55064;49.636;12.164;2024-01-27T07:10:37;-0.21;98.62
68248;SHT30;55064;49.636;12.164;2024-01-27T07:13:05;-0.20;98.06
68248;SHT30;55064;49.636;12.164;2024-01-27T07:15:31;-0.14;97.75
68248;SHT30;55064;49.636;12.164;2024-01-27T07:17:56;-0.05;97.49
68248;SHT30;55064;49.636;12.164;2024-01-27T07:20:22;-0.05;97.54
68248;SHT30;55064;49.636;12.164;2024-01-27T07:22:49;-0.07;97.42
68248;SHT30;55064;49.636;12.164;2024-01-27T07:25:14;-0.10;97.32
68248;SHT30;55064;49.636;12.164;2024-01-27T07:27:40;-0.06;97.29
68248;SHT30;55064;49.636;12.164;2024-01-27T07:30:06;0.00;97.06
68248;SHT30;55064;49.636;12.164;2024-01-27T07:32:34;-0.02;96.97
68248;SHT30;55064;49.636;12.164;2024-01-27T07:34:59;0.01;96.88
68248;SHT30;55064;49.636;12.164;2024-01-27T07:37:24;0.05;96.78
68248;SHT30;55064;49.636;12.164;2024-01-27T07:39:50;0.03;96.80
68248;SHT30;55064;49.636;12.164;2024-01-27T07:42:15;0.07;96.57
68248;SHT30;55064;49.636;12.164;2024-01-27T07:44:41;0.05;96.60
68248;SHT30;55064;49.636;12.164;2024-01-27T07:47:07;0.05;96.31
68248;SHT30;55064;49.636;12.164;2024-01-27T07:49:32;0.04;96.47
68248;SHT30;55064;49.636;12.164;2024-01-27T07:51:57;0.08;96.39
68248;SHT30;55064;49.636;12.164;2024-01-27T07:54:23;0.11;96.43
68248;SHT30;55064;49.636;12.164;2024-01-27T07:56:48;0.12;96.28
68248;SHT30;55064;49.636;12.164;2024-01-27T07:59:14;0.18;96.28
68248;SHT30;55064;49.636;12.164;2024-01-27T08:01:42;0.19;96.12
68248;SHT30;55064;49.636;12.164;2024-01-27T08:04:08;0.26;96.22
68248;SHT30;55064;49.636;12.164;2024-01-27T08:06:33;0.41;95.98
68248;SHT30;55064;49.636;12.164;2024-01-27T08:08:59;0.75;95.47
68248;SHT30;55064;49.636;12.164;2024-01-27T08:11:24;1.36;93.45
68248;SHT30;55064;49.636;12.164;2024-01-27T08:13:50;1.97;91.40
68248;SHT30;55064;49.636;12.164;2024-01-27T08:16:16;2.25;89.66
68248;SHT30;55064;49.636;12.164;2024-01-27T08:18:42;2.25;88.48
68248;SHT30;55064;49.636;12.164;2024-01-27T08:21:09;2.01;89.14
68248;SHT30;55064;49.636;12.164;2024-01-27T08:23:35;1.90;89.42
68248;SHT30;55064;49.636;12.164;2024-01-27T08:26:00;2.01;89.34
68248;SHT30;55064;49.636;12.164;2024-01-27T08:28:26;2.01;89.45
68248;SHT30;55064;49.636;12.164;2024-01-27T08:30:51;2.06;89.23
68248;SHT30;55064;49.636;12.164;2024-01-27T08:33:16;2.11;89.41
68248;SHT30;55064;49.636;12.164;2024-01-27T08:35:42;2.21;88.98
68248;SHT30;55064;49.636;12.164;2024-01-27T08:38:07;2.52;88.30
68248;SHT30;55064;49.636;12.164;2024-01-27T08:40:35;2.59;87.32
68248;SHT30;55064;49.636;12.164;2024-01-27T08:43:01;3.03;86.61
68248;SHT30;55064;49.636;12.164;2024-01-27T08:45:26;3.05;86.08
68248;SHT30;55064;49.636;12.164;2024-01-27T08:47:52;3.05;86.61
68248;SHT30;55064;49.636;12.164;2024-01-27T08:50:17;2.59;87.44
68248;SHT30;55064;49.636;12.164;2024-01-27T08:52:43;2.80;87.76
68248;SHT30;55064;49.636;12.164;2024-01-27T08:55:08;2.84;87.23
68248;SHT30;55064;49.636;12.164;2024-01-27T08:57:34;2.63;87.00
68248;SHT30;55064;49.636;12.164;2024-01-27T08:59:59;2.79;86.85
68248;SHT30;55064;49.636;12.164;2024-01-27T09:02:24;2.64;87.07
68248;SHT30;55064;49.636;12.164;2024-01-27T09:04:50;2.76;87.19
68248;SHT30;55064;49.636;12.164;2024-01-27T09:07:16;2.91;87.32
68248;SHT30;55064;49.636;12.164;2024-01-27T09:09:41;2.90;87.37
68248;SHT30;55064;49.636;12.164;2024-01-27T09:12:07;3.07;86.66
68248;SHT30;55064;49.636;12.164;2024-01-27T09:14:32;2.97;86.78
68248;SHT30;55064;49.636;12.164;2024-01-27T09:16:59;2.75;87.70
68248;SHT30;55064;49.636;12.164;2024-01-27T09:19:25;2.80;87.74
68248;SHT30;55064;49.636;12.164;2024-01-27T09:21:50;2.93;86.83
68248;SHT30;55064;49.636;12.164;2024-01-27T09:24:15;3.00;87.39
68248;SHT30;55064;49.636;12.164;2024-01-27T09:26:41;3.08;87.07
68248;SHT30;55064;49.636;12.164;2024-01-27T09:29:06;3.04;86.89
68248;SHT30;55064;49.636;12.164;2024-01-27T09:31:32;3.22;86.45
68248;SHT30;55064;49.636;12.164;2024-01-27T09:33:57;3.34;86.45
68248;SHT30;55064;49.636;12.164;2024-01-27T09:36:23;3.18;85.93
68248;SHT30;55064;49.636;12.164;2024-01-27T09:38:48;3.24;85.67
68248;SHT30;55064;49.636;12.164;2024-01-27T09:41:14;3.12;86.10
68248;SHT30;55064;49.636;12.164;2024-01-27T09:43:44;3.35;86.42
68248;SHT30;55064;49.636;12.164;2024-01-27T09:46:14;3.43;86.22
68248;SHT30;55064;49.636;12.164;2024-01-27T09:48:40;3.60;85.44
68248;SHT30;55064;49.636;12.164;2024-01-27T09:51:08;3.80;84.31
68248;SHT30;55064;49.636;12.164;2024-01-27T09:53:33;3.69;84.29
68248;SHT30;55064;49.636;12.164;2024-01-27T09:56:00;3.58;84.29
68248;SHT30;55064;49.636;12.164;2024-01-27T09:58:28;3.49;84.03
68248;SHT30;55064;49.636;12.164;2024-01-27T10:00:57;3.65;83.66
68248;SHT30;55064;49.636;12.164;2024-01-27T10:03:27;3.54;84.23
68248;SHT30;55064;49.636;12.164;2024-01-27T10:05:53;3.48;84.65
68248;SHT30;55064;49.636;12.164;2024-01-27T10:08:23;3.43;84.85
68248;SHT30;55064;49.636;12.164;2024-01-27T10:10:56;3.48;85.34
68248;SHT30;55064;49.636;12.164;2024-01-27T10:13:22;3.48;84.73
68248;SHT30;55064;49.636;12.164;2024-01-27T10:16:00;3.45;84.84
68248;SHT30;55064;49.636;12.164;2024-01-27T10:18:26;3.46;85.32
68248;SHT30;55064;49.636;12.164;2024-01-27T10:20:52;3.54;84.87
68248;SHT30;55064;49.636;12.164;2024-01-27T10:23:17;3.65;85.00
68248;SHT30;55064;49.636;12.164;2024-01-27T10:25:43;3.91;83.99
68248;SHT30;55064;49.636;12.164;2024-01-27T10:28:08;3.95;83.66
68248;SHT30;55064;49.636;12.164;2024-01-27T10:30:34;3.91;83.08
68248;SHT30;55064;49.636;12.164;2024-01-27T10:32:59;3.86;83.71
68248;SHT30;55064;49.636;12.164;2024-01-27T10:35:25;3.94;83.21
68248;SHT30;55064;49.636;12.164;2024-01-27T10:37:54;3.82;82.52
68248;SHT30;55064;49.636;12.164;2024-01-27T10:40:20;3.89;82.26
68248;SHT30;55064;49.636;12.164;2024-01-27T10:42:45;3.83;82.86
68248;SHT30;55064;49.636;12.164;2024-01-27T10:45:11;3.82;83.13
68248;SHT30;55064;49.636;12.164;2024-01-27T10:47:39;3.86;83.17
68248;SHT30;55064;49.636;12.164;2024-01-27T10:50:08;3.90;82.82
68248;SHT30;55064;49.636;12.164;2024-01-27T10:52:39;3.94;81.93
68248;SHT30;55064;49.636;12.164;2024-01-27T10:55:09;3.97;82.55
68248;SHT30;55064;49.636;12.164;2024-01-27T10:57:36;4.01;82.03
68248;SHT30;55064;49.636;12.164;2024-01-27T11:00:04;4.04;81.92
68248;SHT30;55064;49.636;12.164;2024-01-27T11:02:35;4.22;81.63
68248;SHT30;55064;49.636;12.164;2024-01-27T11:05:04;4.35;80.99
68248;SHT30;55064;49.636;12.164;2024-01-27T11:07:34;4.55;80.36
68248;SHT30;55064;49.636;12.164;2024-01-27T11:10:00;4.75;80.70
68248;SHT30;55064;49.636;12.164;2024-01-27T11:12:26;4.79;80.78
68248;SHT30;55064;49.636;12.164;2024-01-27T11:14:53;4.52;79.94
68248;SHT30;55064;49.636;12.164;2024-01-27T11:17:19;4.77;80.39
68248;SHT30;55064;49.636;12.164;2024-01-27T11:19:45;4.84;79.96
68248;SHT30;55064;49.636;12.164;2024-01-27T11:22:28;4.93;80.17
68248;SHT30;55064;49.636;12.164;2024-01-27T11:25:15;4.97;79.76
68248;SHT30;55064;49.636;12.164;2024-01-27T11:27:42;5.14;79.55
68248;SHT30;55064;49.636;12.164;2024-01-27T11:30:29;5.08;78.57
68248;SHT30;55064;49.636;12.164;2024-01-27T11:33:01;5.28;77.71
68248;SHT30;55064;49.636;12.164;2024-01-27T11:35:27;5.34;77.94
68248;SHT30;55064;49.636;12.164;2024-01-27T11:37:53;5.42;78.00
68248;SHT30;55064;49.636;12.164;2024-01-27T11:40:19;5.45;77.38
68248;SHT30;55064;49.636;12.164;2024-01-27T11:42:54;5.53;78.12
68248;SHT30;55064;49.636;12.164;2024-01-27T11:45:20;5.51;77.98
68248;SHT30;55064;49.636;12.164;2024-01-27T11:47:45;5.60;77.57
68248;SHT30;55064;49.636;12.164;2024-01-27T11:50:11;5.62;76.63
68248;SHT30;55064;49.636;12.164;2024-01-27T11:52:37;5.70;77.29
68248;SHT30;55064;49.636;12.164;2024-01-27T11:55:02;5.93;77.91
68248;SHT30;55064;49.636;12.164;2024-01-27T11:57:34;6.04;77.74
68248;SHT30;55064;49.636;12.164;2024-01-27T12:00:00;6.18;76.16
68248;SHT30;55064;49.636;12.164;2024-01-27T12:02:25;6.15;76.18
68248;SHT30;55064;49.636;12.164;2024-01-27T12:04:51;6.17;74.57
68248;SHT30;55064;49.636;12.164;2024-01-27T12:07:17;6.29;75.74
68248;SHT30;55064;49.636;12.164;2024-01-27T12:09:48;6.34;74.84
68248;SHT30;55064;49.636;12.164;2024-01-27T12:12:13;6.31;73.97
68248;SHT30;55064;49.636;12.164;2024-01-27T12:14:40;6.26;75.27
68248;SHT30;55064;49.636;12.164;2024-01-27T12:17:08;6.34;74.58
68248;SHT30;55064;49.636;12.164;2024-01-27T12:19:34;6.36;73.90
68248;SHT30;55064;49.636;12.164;2024-01-27T12:21:59;6.42;73.81
68248;SHT30;55064;49.636;12.164;2024-01-27T12:24:25;6.48;74.16
68248;SHT30;55064;49.636;12.164;2024-01-27T12:26:50;6.32;73.30
68248;SHT30;55064;49.636;12.164;2024-01-27T12:29:15;6.42;73.13
68248;SHT30;55064;49.636;12.164;2024-01-27T12:31:41;6.46;74.45
68248;SHT30;55064;49.636;12.164;2024-01-27T12:34:07;6.66;73.61
68248;SHT30;55064;49.636;12.164;2024-01-27T12:36:32;6.72;73.55
68248;SHT30;55064;49.636;12.164;2024-01-27T12:38:59;6.69;73.33
68248;SHT30;55064;49.636;12.164;2024-01-27T12:41:25;6.84;73.23
68248;SHT30;55064;49.636;12.164;2024-01-27T12:43:51;6.89;72.58
68248;SHT30;55064;49.636;12.164;2024-01-27T12:46:17;7.10;72.76
68248;SHT30;55064;49.636;12.164;2024-01-27T12:48:44;6.89;70.70
68248;SHT30;55064;49.636;12.164;2024-01-27T12:51:09;7.01;71.41
68248;SHT30;55064;49.636;12.164;2024-01-27T12:53:35;7.19;70.96
68248;SHT30;55064;49.636;12.164;2024-01-27T12:56:00;7.22;71.27
68248;SHT30;55064;49.636;12.164;2024-01-27T12:58:26;7.31;71.27
68248;SHT30;55064;49.636;12.164;2024-01-27T13:00:51;7.28;72.12
68248;SHT30;55064;49.636;12.164;2024-01-27T13:03:16;7.38;71.52
68248;SHT30;55064;49.636;12.164;2024-01-27T13:05:43;7.34;71.82
68248;SHT30;55064;49.636;12.164;2024-01-27T13:08:08;7.27;71.23
68248;SHT30;55064;49.636;12.164;2024-01-27T13:10:34;7.45;70.64
68248;SHT30;55064;49.636;12.164;2024-01-27T13:12:59;7.36;71.16
68248;SHT30;55064;49.636;12.164;2024-01-27T13:15:24;7.34;71.68
68248;SHT30;55064;49.636;12.164;2024-01-27T13:17:51;7.36;71.41
68248;SHT30;55064;49.636;12.164;2024-01-27T13:20:16;7.10;71.34
68248;SHT30;55064;49.636;12.164;2024-01-27T13:22:43;7.32;71.14
68248;SHT30;55064;49.636;12.164;2024-01-27T13:25:08;7.38;71.44
68248;SHT30;55064;49.636;12.164;2024-01-27T13:27:34;7.32;70.85
68248;SHT30;55064;49.636;12.164;2024-01-27T13:30:00;7.32;71.32
68248;SHT30;55064;49.636;12.164;2024-01-27T13:32:25;7.29;70.87
68248;SHT30;55064;49.636;12.164;2024-01-27T13:34:52;7.35;70.77
68248;SHT30;55064;49.636;12.164;2024-01-27T13:37:17;7.46;70.51
68248;SHT30;55064;49.636;12.164;2024-01-27T13:39:42;7.34;70.86
68248;SHT30;55064;49.636;12.164;2024-01-27T13:42:08;7.42;69.92
68248;SHT30;55064;49.636;12.164;2024-01-27T13:44:35;7.27;71.02
68248;SHT30;55064;49.636;12.164;2024-01-27T13:47:04;7.11;71.08
68248;SHT30;55064;49.636;12.164;2024-01-27T13:49:33;6.84;70.39
68248;SHT30;55064;49.636;12.164;2024-01-27T13:51:59;6.86;70.79
68248;SHT30;55064;49.636;12.164;2024-01-27T13:54:24;6.77;71.25
68248;SHT30;55064;49.636;12.164;2024-01-27T13:56:50;6.69;71.42
68248;SHT30;55064;49.636;12.164;2024-01-27T13:59:16;6.68;71.64
68248;SHT30;55064;49.636;12.164;2024-01-27T14:01:41;6.53;71.14
68248;SHT30;55064;49.636;12.164;2024-01-27T14:04:06;6.52;70.99
68248;SHT30;55064;49.636;12.164;2024-01-27T14:06:33;6.44;71.84
68248;SHT30;55064;49.636;12.164;2024-01-27T14:08:59;6.45;71.31
68248;SHT30;55064;49.636;12.164;2024-01-27T14:11:26;6.36;72.21
68248;SHT30;55064;49.636;12.164;2024-01-27T14:13:52;6.31;72.15
68248;SHT30;55064;49.636;12.164;2024-01-27T14:16:17;6.18;73.00
68248;SHT30;55064;49.636;12.164;2024-01-27T14:18:43;6.17;72.65
68248;SHT30;55064;49.636;12.164;2024-01-27T14:21:08;6.08;72.86
68248;SHT30;55064;49.636;12.164;2024-01-27T14:23:33;6.03;73.17
68248;SHT30;55064;49.636;12.164;2024-01-27T14:25:59;6.00;72.84
68248;SHT30;55064;49.636;12.164;2024-01-27T14:28:24;6.04;73.08
68248;SHT30;55064;49.636;12.164;2024-01-27T14:30:50;5.98;73.36
68248;SHT30;55064;49.636;12.164;2024-01-27T14:33:15;5.98;73.69
68248;SHT30;55064;49.636;12.164;2024-01-27T14:35:46;5.91;72.86
68248;SHT30;55064;49.636;12.164;2024-01-27T14:38:12;5.85;72.86
68248;SHT30;55064;49.636;12.164;2024-01-27T14:40:38;5.86;72.58
68248;SHT30;55064;49.636;12.164;2024-01-27T14:43:04;5.79;72.89
68248;SHT30;55064;49.636;12.164;2024-01-27T14:45:33;5.81;73.44
68248;SHT30;55064;49.636;12.164;2024-01-27T14:48:00;5.81;73.63
68248;SHT30;55064;49.636;12.164;2024-01-27T14:50:26;5.71;73.28
68248;SHT30;55064;49.636;12.164;2024-01-27T14:52:52;5.66;74.06
68248;SHT30;55064;49.636;12.164;2024-01-27T14:55:17;5.63;73.57
68248;SHT30;55064;49.636;12.164;2024-01-27T14:57:43;5.60;73.73
68248;SHT30;55064;49.636;12.164;2024-01-27T15:00:08;5.49;73.94
68248;SHT30;55064;49.636;12.164;2024-01-27T15:02:34;5.49;74.65
68248;SHT30;55064;49.636;12.164;2024-01-27T15:05:00;5.43;74.58
68248;SHT30;55064;49.636;12.164;2024-01-27T15:07:25;5.42;74.33
68248;SHT30;55064;49.636;12.164;2024-01-27T15:09:55;5.43;74.52
68248;SHT30;55064;49.636;12.164;2024-01-27T15:12:20;5.36;74.98
68248;SHT30;55064;49.636;12.164;2024-01-27T15:14:46;5.32;75.01
68248;SHT30;55064;49.636;12.164;2024-01-27T15:17:12;5.22;75.60
68248;SHT30;55064;49.636;12.164;2024-01-27T15:19:37;5.21;74.87
68248;SHT30;55064;49.636;12.164;2024-01-27T15:22:03;5.15;75.20